Pleasanthill, Nebraska
Current Conditions -  °F | °C
As of 6:54 AM on Wednesday 22 Oct 2014 (Local Time) from KLNK Reporting Station
Clear Clear  
Wind Chill: 54°   Ceiling: Unl
Heat Index: 54°   Visibility: 10mi
Dew Point: 44°   Wind: 12mph
Humidity: 69%   Direction: 160°SSE
Pressure: 30.08"   Gusts: NA
Location:  40.6539°N, 97.0844°W
Report Text: KLNK 221154Z 16010KT 10SM CLR 12/07 A3008 RMK AO2 SLP184 T01220067 10161 20122 50001
Loading
Personal Weather Stations






























Interactive Weather Map
Tropical Storm Tracking
New forecast layout! Learn more

10-Day Weather Forecast

Advertisements
Track Severe Weather on mobile